createdAt,value
2019-03-19T00:00:30.553Z,75.67
2019-03-19T00:02:59.713Z,76.05
2019-03-19T00:05:28.768Z,76.40
2019-03-19T00:07:57.850Z,76.49
2019-03-19T00:10:26.908Z,76.56
2019-03-19T00:12:55.986Z,76.67
2019-03-19T00:15:25.045Z,76.80
2019-03-19T00:17:54.123Z,76.90
2019-03-19T00:20:23.114Z,76.97
2019-03-19T00:22:52.204Z,77.35
2019-03-19T00:25:29.494Z,77.47
2019-03-19T00:27:52.082Z,77.61
2019-03-19T00:30:21.150Z,77.58
2019-03-19T00:32:50.230Z,77.49
2019-03-19T00:35:19.286Z,77.58
2019-03-19T00:37:48.369Z,77.63
2019-03-19T00:40:17.635Z,77.63
2019-03-19T00:42:46.631Z,77.70
2019-03-19T00:45:15.693Z,77.69
2019-03-19T00:47:44.811Z,77.93
2019-03-19T00:50:13.901Z,78.02
2019-03-19T00:52:42.982Z,78.16
2019-03-19T00:55:12.209Z,78.25
2019-03-19T00:57:41.289Z,78.42
2019-03-19T01:00:10.671Z,78.42
2019-03-19T01:02:39.746Z,78.43
2019-03-19T01:05:09.152Z,78.43
2019-03-19T01:07:38.226Z,78.48
2019-03-19T01:10:07.564Z,78.53
2019-03-19T01:12:36.630Z,78.60
2019-03-19T01:15:06.906Z,78.63
2019-03-19T01:17:35.966Z,78.54
2019-03-19T01:20:05.599Z,78.58
2019-03-19T01:22:35.124Z,78.45
2019-03-19T01:25:04.724Z,78.43
2019-03-19T01:27:33.893Z,78.50
2019-03-19T01:30:02.935Z,78.68
2019-03-19T01:32:32.009Z,78.87
2019-03-19T01:35:01.071Z,79.01
2019-03-19T01:37:30.089Z,79.25
2019-03-19T01:39:59.072Z,79.65
2019-03-19T01:42:28.075Z,79.71
2019-03-19T01:44:57.050Z,79.65
2019-03-19T01:47:26.142Z,79.58
2019-03-19T01:49:55.142Z,79.54
2019-03-19T01:52:24.162Z,79.61
2019-03-19T01:54:53.066Z,79.82
2019-03-19T01:57:22.077Z,79.82
2019-03-19T01:59:51.123Z,79.88
2019-03-19T02:02:20.215Z,79.87
2019-03-19T02:04:49.276Z,79.85
2019-03-19T02:07:18.365Z,79.70
2019-03-19T02:09:47.358Z,79.55
2019-03-19T02:12:16.442Z,79.49
2019-03-19T02:14:45.492Z,79.45
2019-03-19T02:17:14.574Z,79.32
2019-03-19T02:19:43.633Z,79.22
2019-03-19T02:22:12.632Z,79.14
2019-03-19T02:24:41.684Z,79.11
2019-03-19T02:27:10.761Z,79.19
2019-03-19T02:29:39.749Z,79.13
2019-03-19T02:32:08.750Z,79.17
2019-03-19T02:34:37.809Z,79.28
2019-03-19T02:37:06.880Z,79.22
2019-03-19T02:39:35.924Z,79.17
2019-03-19T02:42:05.018Z,79.17
2019-03-19T02:44:34.008Z,79.11
2019-03-19T02:47:03.084Z,79.07
2019-03-19T02:49:32.170Z,79.09
2019-03-19T02:52:01.285Z,79.16
2019-03-19T02:54:30.306Z,79.22
2019-03-19T02:56:59.389Z,79.37
2019-03-19T02:59:28.453Z,79.53
2019-03-19T03:01:57.529Z,79.56
2019-03-19T03:04:26.616Z,79.65
2019-03-19T03:06:57.120Z,79.77
2019-03-19T03:09:26.178Z,79.79
2019-03-19T03:11:55.260Z,79.84
2019-03-19T03:14:24.335Z,80.00
2019-03-19T03:16:53.388Z,80.09
2019-03-19T03:19:22.460Z,80.09
2019-03-19T03:21:51.526Z,80.06
2019-03-19T03:24:20.600Z,80.02
2019-03-19T03:26:49.659Z,80.00
2019-03-19T03:29:18.960Z,79.93
2019-03-19T03:31:48.027Z,79.91
2019-03-19T03:34:17.040Z,80.00
2019-03-19T03:36:46.093Z,79.95
2019-03-19T03:39:15.172Z,80.00
2019-03-19T03:41:44.236Z,79.93
2019-03-19T03:44:13.311Z,79.90
2019-03-19T03:46:42.292Z,79.91
2019-03-19T03:49:11.317Z,79.90
2019-03-19T03:51:40.311Z,79.79
2019-03-19T03:54:09.402Z,79.75
2019-03-19T03:56:38.461Z,79.83
2019-03-19T03:59:07.546Z,79.74
2019-03-19T04:01:36.603Z,79.77
2019-03-19T04:04:05.791Z,79.78
2019-03-19T04:06:34.847Z,79.73
2019-03-19T04:09:08.843Z,79.71
2019-03-19T04:11:36.089Z,79.69
2019-03-19T04:14:05.176Z,79.82
2019-03-19T04:16:34.310Z,79.92
2019-03-19T04:19:03.398Z,79.90
2019-03-19T04:21:32.461Z,79.94
2019-03-19T04:24:01.543Z,79.99
2019-03-19T04:26:30.587Z,79.97
2019-03-19T04:28:59.666Z,79.93
2019-03-19T04:31:28.745Z,79.91
2019-03-19T04:33:57.826Z,79.91
2019-03-19T04:36:26.898Z,80.13
2019-03-19T04:38:55.903Z,80.12
2019-03-19T04:41:24.957Z,80.13
2019-03-19T04:43:54.046Z,80.19
2019-03-19T04:46:23.108Z,80.55
2019-03-19T04:48:52.062Z,80.49
2019-03-19T04:51:21.138Z,80.61
2019-03-19T04:53:50.151Z,80.79
2019-03-19T04:56:19.208Z,80.83
2019-03-19T04:58:48.266Z,80.91
2019-03-19T05:01:17.356Z,80.94
2019-03-19T05:03:46.419Z,81.05
2019-03-19T05:06:15.432Z,81.10
2019-03-19T05:08:44.423Z,81.25
2019-03-19T05:11:13.510Z,81.27
2019-03-19T05:13:42.495Z,81.31
2019-03-19T05:16:11.503Z,81.39
2019-03-19T05:18:40.564Z,81.39
2019-03-19T05:21:09.651Z,81.30
2019-03-19T05:23:38.627Z,81.29
2019-03-19T05:26:07.722Z,81.33
2019-03-19T05:28:36.794Z,81.34
2019-03-19T05:31:05.869Z,81.29
2019-03-19T05:33:34.863Z,81.21
2019-03-19T05:36:03.941Z,81.15
2019-03-19T05:38:32.928Z,81.07
2019-03-19T05:41:02.014Z,81.01
2019-03-19T05:43:31.068Z,80.97
2019-03-19T05:46:00.167Z,80.95
2019-03-19T05:48:29.177Z,80.88
2019-03-19T05:50:58.259Z,80.83
2019-03-19T05:53:27.241Z,80.81
2019-03-19T05:55:56.326Z,80.73
2019-03-19T05:58:25.316Z,80.67
2019-03-19T06:00:54.402Z,80.60
2019-03-19T06:03:23.450Z,80.57
2019-03-19T06:05:52.529Z,80.59
2019-03-19T06:08:21.594Z,80.61
2019-03-19T06:10:50.671Z,80.64
2019-03-19T06:13:19.722Z,80.64
2019-03-19T06:15:48.801Z,80.64
2019-03-19T06:18:17.793Z,80.62
2019-03-19T06:20:46.879Z,80.63
2019-03-19T06:23:15.943Z,80.69
2019-03-19T06:25:44.952Z,80.79
2019-03-19T06:28:13.942Z,80.84
2019-03-19T06:30:42.963Z,80.85
2019-03-19T06:33:11.949Z,80.85
2019-03-19T06:35:41.034Z,80.97
2019-03-19T06:38:10.095Z,81.02
2019-03-19T06:40:39.172Z,80.96
2019-03-19T06:43:08.154Z,80.86
2019-03-19T06:45:37.236Z,80.71
2019-03-19T06:48:06.324Z,80.57
2019-03-19T06:50:44.793Z,80.52
2019-03-19T06:53:06.220Z,80.51
2019-03-19T06:55:35.308Z,80.56
2019-03-19T06:58:10.938Z,80.75
2019-03-19T07:00:35.225Z,80.53
2019-03-19T07:03:04.397Z,80.45
2019-03-19T07:05:33.470Z,80.44
2019-03-19T07:08:02.529Z,80.39
2019-03-19T07:10:31.609Z,80.38
2019-03-19T07:13:00.660Z,80.26
2019-03-19T07:15:29.753Z,80.19
2019-03-19T07:17:58.743Z,80.37
2019-03-19T07:20:27.839Z,80.20
2019-03-19T07:22:56.889Z,80.15
2019-03-19T07:25:25.978Z,80.18
2019-03-19T07:27:55.113Z,80.10
2019-03-19T07:30:24.292Z,80.10
2019-03-19T07:32:53.352Z,80.45
2019-03-19T07:35:22.361Z,80.38
2019-03-19T07:37:51.412Z,80.18
2019-03-19T07:40:20.502Z,80.16
2019-03-19T07:42:49.556Z,80.20
2019-03-19T07:45:18.741Z,80.18
2019-03-19T07:47:47.800Z,80.26
2019-03-19T07:50:16.955Z,79.98
2019-03-19T07:52:46.018Z,79.72
2019-03-19T07:55:15.113Z,79.67
2019-03-19T07:57:44.179Z,79.36
2019-03-19T08:00:14.704Z,79.35
2019-03-19T08:02:43.769Z,79.36
2019-03-19T08:05:12.811Z,79.21
2019-03-19T08:07:41.885Z,78.97
2019-03-19T08:10:10.973Z,78.95
2019-03-19T08:12:40.153Z,78.91
2019-03-19T08:15:10.794Z,78.72
2019-03-19T08:17:39.930Z,78.56
2019-03-19T08:20:10.895Z,78.69
2019-03-19T08:22:39.977Z,78.40
2019-03-19T08:25:10.033Z,78.21
2019-03-19T08:27:39.042Z,77.88
2019-03-19T08:30:10.493Z,77.32
2019-03-19T08:32:39.572Z,77.41
2019-03-19T08:35:08.736Z,77.11
2019-03-19T08:37:37.820Z,76.89
2019-03-19T08:40:07.906Z,76.50
2019-03-19T08:42:36.986Z,75.50
2019-03-19T08:45:06.904Z,75.60
2019-03-19T08:47:35.835Z,75.48
2019-03-19T08:50:05.590Z,74.33
2019-03-19T08:52:34.603Z,74.03
2019-03-19T08:55:03.703Z,73.08
2019-03-19T08:57:32.784Z,72.34
2019-03-19T09:00:01.783Z,71.99
2019-03-19T09:02:30.787Z,71.77
2019-03-19T09:04:59.779Z,70.56
2019-03-19T09:07:28.857Z,70.91
2019-03-19T09:09:57.926Z,70.69
2019-03-19T09:12:26.930Z,70.41
2019-03-19T09:14:55.910Z,70.23
2019-03-19T09:17:24.923Z,69.38
2019-03-19T09:19:53.987Z,69.35
2019-03-19T09:22:23.073Z,68.79
2019-03-19T09:24:52.089Z,68.51
2019-03-19T09:27:21.167Z,68.12
2019-03-19T09:29:50.227Z,68.20
2019-03-19T09:32:19.328Z,67.60
2019-03-19T09:34:48.383Z,67.81
2019-03-19T09:37:17.473Z,68.15
2019-03-19T09:39:46.529Z,68.28
2019-03-19T09:42:15.606Z,68.48
2019-03-19T09:44:44.658Z,68.20
2019-03-19T09:47:13.750Z,69.46
2019-03-19T09:49:42.832Z,67.70
2019-03-19T09:52:11.926Z,67.02
2019-03-19T09:54:40.987Z,67.50
2019-03-19T09:57:10.066Z,66.46
2019-03-19T09:59:39.151Z,65.28
2019-03-19T10:02:08.230Z,65.56
2019-03-19T10:04:37.301Z,65.36
2019-03-19T10:07:06.676Z,64.55
2019-03-19T10:09:35.840Z,63.28
2019-03-19T10:12:04.950Z,63.24
2019-03-19T10:14:34.001Z,64.19
2019-03-19T10:17:03.084Z,64.35
2019-03-19T10:19:32.138Z,63.36
2019-03-19T10:22:01.274Z,60.55
2019-03-19T10:24:30.322Z,60.82
2019-03-19T10:26:59.327Z,60.07
2019-03-19T10:29:37.854Z,58.64
2019-03-19T10:31:59.195Z,59.14
2019-03-19T10:34:28.188Z,60.47
2019-03-19T10:36:57.304Z,59.88
2019-03-19T10:39:26.281Z,59.34
2019-03-19T10:41:55.368Z,59.88
2019-03-19T10:44:24.439Z,59.49
2019-03-19T10:46:53.443Z,57.82
2019-03-19T10:49:22.524Z,57.06
2019-03-19T10:51:51.606Z,57.48
2019-03-19T10:54:20.680Z,57.78
2019-03-19T10:56:49.767Z,58.56
2019-03-19T10:59:18.772Z,59.73
2019-03-19T11:01:47.849Z,59.47
2019-03-19T11:04:16.909Z,61.31
2019-03-19T11:06:46.003Z,62.05
2019-03-19T11:09:15.077Z,62.66
2019-03-19T11:11:44.215Z,63.89
2019-03-19T11:14:13.273Z,63.60
2019-03-19T11:16:42.344Z,63.52
2019-03-19T11:19:11.434Z,63.00
2019-03-19T11:21:40.492Z,63.24
2019-03-19T11:24:09.570Z,62.15
2019-03-19T11:26:38.553Z,61.76
2019-03-19T11:29:07.561Z,61.89
2019-03-19T11:31:36.629Z,61.25
2019-03-19T11:34:05.738Z,61.54
2019-03-19T11:36:34.803Z,61.18
2019-03-19T11:39:05.520Z,60.75
2019-03-19T11:41:34.513Z,59.69
2019-03-19T11:44:03.597Z,58.32
2019-03-19T11:46:32.673Z,58.15
2019-03-19T11:49:01.779Z,59.01
2019-03-19T11:51:30.842Z,59.42
2019-03-19T11:53:59.857Z,58.88
2019-03-19T11:56:28.915Z,60.22
2019-03-19T11:58:57.995Z,60.90
2019-03-19T12:01:27.062Z,59.98
2019-03-19T12:03:56.138Z,60.57
2019-03-19T12:06:25.191Z,58.50
2019-03-19T12:08:54.272Z,57.24
2019-03-19T12:11:23.346Z,56.27
2019-03-19T12:13:52.437Z,55.71
2019-03-19T12:16:21.438Z,55.47
2019-03-19T12:18:50.559Z,55.49
2019-03-19T12:21:19.604Z,54.57
2019-03-19T12:23:48.688Z,53.64
2019-03-19T12:26:17.754Z,52.41
2019-03-19T12:28:47.023Z,53.33
2019-03-19T12:31:16.068Z,54.07
2019-03-19T12:33:45.157Z,53.45
2019-03-19T12:36:14.155Z,50.74
2019-03-19T12:38:43.246Z,50.91
2019-03-19T12:41:12.296Z,50.01
2019-03-19T12:43:41.387Z,47.42
2019-03-19T12:46:10.459Z,46.54
2019-03-19T12:48:39.551Z,47.16
2019-03-19T12:51:08.541Z,46.74
2019-03-19T12:53:37.617Z,46.52
2019-03-19T12:56:06.677Z,47.15
2019-03-19T12:58:35.681Z,47.47
2019-03-19T13:01:04.898Z,48.09
2019-03-19T13:03:34.030Z,47.74
2019-03-19T13:06:03.027Z,48.06
2019-03-19T13:08:32.116Z,46.98
2019-03-19T13:11:01.128Z,44.87
2019-03-19T13:13:30.218Z,46.27
2019-03-19T13:15:59.282Z,45.04
2019-03-19T13:18:28.298Z,43.61
2019-03-19T13:20:57.366Z,42.84
2019-03-19T13:23:26.461Z,42.65
2019-03-19T13:25:56.821Z,43.13
2019-03-19T13:28:26.006Z,42.98
2019-03-19T13:30:55.012Z,42.24
2019-03-19T13:33:24.101Z,42.10
2019-03-19T13:35:53.162Z,42.02
2019-03-19T13:38:22.252Z,42.04
2019-03-19T13:40:51.328Z,42.24
2019-03-19T13:43:20.351Z,42.18
2019-03-19T13:45:49.417Z,42.33
2019-03-19T13:48:18.513Z,42.76
2019-03-19T13:50:47.595Z,43.15
2019-03-19T13:53:16.678Z,42.98
2019-03-19T13:55:45.749Z,43.13
2019-03-19T13:58:14.843Z,43.91
2019-03-19T14:00:43.920Z,43.82
2019-03-19T14:03:12.998Z,43.14
2019-03-19T14:05:42.056Z,43.24
2019-03-19T14:08:11.128Z,43.90
2019-03-19T14:10:40.213Z,44.58
2019-03-19T14:13:09.304Z,45.05
2019-03-19T14:15:38.352Z,45.56
2019-03-19T14:18:07.419Z,46.77
2019-03-19T14:20:36.510Z,46.33
2019-03-19T14:23:05.673Z,46.43
2019-03-19T14:25:34.690Z,46.49
2019-03-19T14:28:03.759Z,45.59
2019-03-19T14:30:32.763Z,45.82
2019-03-19T14:33:01.821Z,45.80
2019-03-19T14:35:37.267Z,45.34
2019-03-19T14:38:01.671Z,45.11
2019-03-19T14:40:30.860Z,45.70
2019-03-19T14:43:01.425Z,46.13
2019-03-19T14:45:30.706Z,46.03
2019-03-19T14:47:59.776Z,46.17
2019-03-19T14:50:28.895Z,46.15
2019-03-19T14:52:57.947Z,46.30
2019-03-19T14:55:27.034Z,46.47
2019-03-19T14:57:56.093Z,46.50
2019-03-19T15:00:25.180Z,46.59
2019-03-19T15:02:54.257Z,47.18
2019-03-19T15:05:23.339Z,47.02
2019-03-19T15:07:52.411Z,46.68
2019-03-19T15:10:21.491Z,47.34
2019-03-19T15:12:50.551Z,47.51
2019-03-19T15:15:19.648Z,47.75
2019-03-19T15:17:48.716Z,47.90
2019-03-19T15:20:18.365Z,48.40
2019-03-19T15:22:47.422Z,48.34
2019-03-19T15:25:16.505Z,48.16
2019-03-19T15:27:45.567Z,48.65
2019-03-19T15:30:14.840Z,48.65
2019-03-19T15:32:43.923Z,48.20
2019-03-19T15:35:13.006Z,48.16
2019-03-19T15:37:42.053Z,47.49
2019-03-19T15:40:12.456Z,47.74
2019-03-19T15:42:41.512Z,47.71
2019-03-19T15:45:11.459Z,48.08
2019-03-19T15:47:40.513Z,48.62
2019-03-19T15:50:12.006Z,49.07
2019-03-19T15:52:41.061Z,49.50
2019-03-19T15:55:11.063Z,50.02
2019-03-19T15:57:40.099Z,50.09
2019-03-19T16:00:12.500Z,50.28
2019-03-19T16:02:41.555Z,50.58
2019-03-19T16:05:11.101Z,50.56
2019-03-19T16:07:40.180Z,50.53
2019-03-19T16:10:09.590Z,50.71
2019-03-19T16:12:38.657Z,50.95
2019-03-19T16:15:08.803Z,50.71
2019-03-19T16:17:37.870Z,50.93
2019-03-19T16:20:08.630Z,50.97
2019-03-19T16:22:37.689Z,50.59
2019-03-19T16:25:06.921Z,50.82
2019-03-19T16:27:35.911Z,51.09
2019-03-19T16:30:05.642Z,51.20
2019-03-19T16:32:34.716Z,51.07
2019-03-19T16:35:03.903Z,50.75
2019-03-19T16:37:58.533Z,50.90
2019-03-19T16:40:27.611Z,51.32
2019-03-19T16:42:56.672Z,51.65
2019-03-19T16:45:25.756Z,51.66
2019-03-19T16:47:54.812Z,51.70
2019-03-19T16:50:23.941Z,51.80
2019-03-19T16:52:53.010Z,52.11
2019-03-19T16:55:22.094Z,52.20
2019-03-19T16:57:51.155Z,52.06
2019-03-19T17:00:20.256Z,52.08
2019-03-19T17:02:49.249Z,52.41
2019-03-19T17:05:18.380Z,52.58
2019-03-19T17:07:47.433Z,52.55
2019-03-19T17:10:16.949Z,52.78
2019-03-19T17:12:46.009Z,52.96
2019-03-19T17:15:15.495Z,52.95
2019-03-19T17:17:44.594Z,53.05
2019-03-19T17:20:13.739Z,53.25
2019-03-19T17:22:42.802Z,53.42
2019-03-19T17:25:13.475Z,53.59
2019-03-19T17:27:42.632Z,53.83
2019-03-19T17:30:17.615Z,53.74
2019-03-19T17:32:46.687Z,53.98
2019-03-19T17:35:15.780Z,54.13
2019-03-19T17:38:02.580Z,54.33
2019-03-19T17:40:40.983Z,54.43
2019-03-19T17:43:02.442Z,54.35
2019-03-19T17:45:31.536Z,54.49
2019-03-19T17:48:00.657Z,54.54
2019-03-19T17:50:29.651Z,54.71
2019-03-19T17:52:58.647Z,54.84
2019-03-19T17:55:27.657Z,54.97
2019-03-19T17:57:56.724Z,55.20
2019-03-19T18:00:26.846Z,55.20
2019-03-19T18:02:55.908Z,55.27
2019-03-19T18:05:24.999Z,55.47
2019-03-19T18:07:54.063Z,55.85
2019-03-19T18:10:23.147Z,56.19
2019-03-19T18:12:52.208Z,56.12
2019-03-19T18:15:21.299Z,56.32
2019-03-19T18:17:50.355Z,56.66
2019-03-19T18:20:19.444Z,57.01
2019-03-19T18:22:48.510Z,57.30
2019-03-19T18:25:17.601Z,57.57
2019-03-19T18:27:46.677Z,57.81
2019-03-19T18:30:16.271Z,58.03
2019-03-19T18:32:45.370Z,58.34
2019-03-19T18:35:14.427Z,58.71
2019-03-19T18:37:43.515Z,58.79
2019-03-19T18:40:12.585Z,58.97
2019-03-19T18:42:41.692Z,59.00
2019-03-19T18:45:11.177Z,59.12
2019-03-19T18:47:40.255Z,59.29
2019-03-19T18:50:11.385Z,59.51
2019-03-19T18:52:40.469Z,59.73
2019-03-19T18:55:09.684Z,59.81
2019-03-19T18:57:41.334Z,59.95
2019-03-19T19:00:12.056Z,60.05
2019-03-19T19:02:49.787Z,60.12
2019-03-19T19:05:12.409Z,60.02
2019-03-19T19:07:41.498Z,60.18
2019-03-19T19:10:11.251Z,60.23
2019-03-19T19:12:40.349Z,60.36
2019-03-19T19:15:11.346Z,60.33
2019-03-19T19:17:40.428Z,60.37
2019-03-19T19:20:10.364Z,60.47
2019-03-19T19:22:39.452Z,60.64
2019-03-19T19:25:10.289Z,60.76
2019-03-19T19:27:39.383Z,60.86
2019-03-19T19:30:11.244Z,60.93
2019-03-19T19:32:40.337Z,60.92
2019-03-19T19:35:09.393Z,60.98
2019-03-19T19:37:38.506Z,61.09
2019-03-19T19:40:09.166Z,61.13
2019-03-19T19:42:38.241Z,60.98
2019-03-19T19:45:07.589Z,60.95
2019-03-19T19:47:36.670Z,60.89
2019-03-19T19:50:07.693Z,60.92
2019-03-19T19:52:36.778Z,60.81
2019-03-19T19:55:06.081Z,60.79
2019-03-19T19:57:35.218Z,60.80
2019-03-19T20:00:05.050Z,60.76
2019-03-19T20:02:34.135Z,60.69
2019-03-19T20:05:03.766Z,60.59
2019-03-19T20:07:32.967Z,60.63
2019-03-19T20:10:02.011Z,60.59
2019-03-19T20:12:31.013Z,60.59
2019-03-19T20:15:00.011Z,60.61
2019-03-19T20:17:29.150Z,60.57
2019-03-19T20:19:58.195Z,60.66
2019-03-19T20:22:27.276Z,60.82
2019-03-19T20:24:56.338Z,60.89
2019-03-19T20:27:25.411Z,60.89
2019-03-19T20:29:54.464Z,61.03
2019-03-19T20:32:23.540Z,61.09
2019-03-19T20:34:52.600Z,61.18
2019-03-19T20:37:21.616Z,61.29
2019-03-19T20:39:50.683Z,61.33
2019-03-19T20:42:19.770Z,61.45
2019-03-19T20:44:48.831Z,61.48
2019-03-19T20:47:17.905Z,61.59
2019-03-19T20:49:48.016Z,61.89
2019-03-19T20:52:17.288Z,61.99
2019-03-19T20:54:46.353Z,62.13
2019-03-19T20:57:15.426Z,62.21
2019-03-19T20:59:44.496Z,62.28
2019-03-19T21:02:13.566Z,62.47
2019-03-19T21:04:42.654Z,62.59
2019-03-19T21:07:11.618Z,62.65
2019-03-19T21:09:40.695Z,62.77
2019-03-19T21:12:09.744Z,62.85
2019-03-19T21:14:38.815Z,62.94
2019-03-19T21:17:07.885Z,63.01
2019-03-19T21:19:37.014Z,63.15
2019-03-19T21:22:06.019Z,63.29
2019-03-19T21:24:35.095Z,63.36
2019-03-19T21:27:04.165Z,63.45
2019-03-19T21:29:33.252Z,63.60
2019-03-19T21:32:02.306Z,63.68
2019-03-19T21:34:31.386Z,63.78
2019-03-19T21:37:00.443Z,63.90
2019-03-19T21:39:29.534Z,63.99
2019-03-19T21:41:58.587Z,64.11
2019-03-19T21:44:27.604Z,64.19
2019-03-19T21:46:56.673Z,64.23
2019-03-19T21:49:25.772Z,64.05
2019-03-19T21:51:54.841Z,64.31
2019-03-19T21:54:23.850Z,64.45
2019-03-19T21:56:52.903Z,64.76
2019-03-19T21:59:21.984Z,64.97
2019-03-19T22:01:51.039Z,65.09
2019-03-19T22:04:20.117Z,64.89
2019-03-19T22:06:49.088Z,65.04
2019-03-19T22:09:18.173Z,65.29
2019-03-19T22:11:47.232Z,65.56
2019-03-19T22:14:16.242Z,65.73
2019-03-19T22:16:45.293Z,65.91
2019-03-19T22:19:14.379Z,66.09
2019-03-19T22:21:43.447Z,66.26
2019-03-19T22:24:12.537Z,66.30
2019-03-19T22:26:41.598Z,66.24
2019-03-19T22:29:12.623Z,66.38
2019-03-19T22:31:41.460Z,66.37
2019-03-19T22:34:14.305Z,66.45
2019-03-19T22:36:41.325Z,66.53
2019-03-19T22:39:10.412Z,66.57
2019-03-19T22:41:39.473Z,66.22
2019-03-19T22:44:08.538Z,66.41
2019-03-19T22:46:37.604Z,66.44
2019-03-19T22:49:06.720Z,66.86
2019-03-19T22:51:35.697Z,67.34
2019-03-19T22:54:04.886Z,67.68
2019-03-19T22:56:34.126Z,68.02
2019-03-19T22:59:03.213Z,68.19
2019-03-19T23:01:32.280Z,68.24
2019-03-19T23:04:01.351Z,68.42
2019-03-19T23:06:30.419Z,68.41
2019-03-19T23:08:59.492Z,68.52
2019-03-19T23:11:28.559Z,68.59
2019-03-19T23:13:57.633Z,68.79
2019-03-19T23:16:26.678Z,69.06
2019-03-19T23:18:55.767Z,69.41
2019-03-19T23:21:24.823Z,69.80
2019-03-19T23:23:53.900Z,70.07
2019-03-19T23:26:22.969Z,70.35
2019-03-19T23:28:52.028Z,70.57
2019-03-19T23:31:21.090Z,70.81
2019-03-19T23:33:50.171Z,71.03
2019-03-19T23:36:19.233Z,71.20
2019-03-19T23:38:48.244Z,71.43
2019-03-19T23:41:17.307Z,71.58
2019-03-19T23:43:46.316Z,71.70
2019-03-19T23:46:15.378Z,72.23
2019-03-19T23:48:44.408Z,72.51
2019-03-19T23:51:13.410Z,72.75
2019-03-19T23:53:42.411Z,73.05
2019-03-19T23:56:11.486Z,73.19
2019-03-19T23:58:40.552Z,73.37
